Peerless, Montana
Current Conditions -  °F | °C
As of 12:53 AM on Thursday 29 Jan 2015 (Local Time) from KOLF Reporting Station
Few Clouds Few Clouds  
Wind Chill: 21°   Ceiling: Unl
Heat Index: 28°   Visibility: 10mi
Dew Point: 23°   Wind: 7mph
Humidity: 81%   Direction: 270°W
Pressure: 30.42"   Gusts: NA
Location:  48.79°N, 105.84°W
Report Text: KOLF 290753Z AUTO 27006KT 10SM FEW019 M02/M05 A3042 RMK AO2 SLP326 T10221050
Loading
Personal Weather Stations






























Interactive Weather Map New forecast layout! Learn more

10-Day Weather Forecast

Advertisements
Track Severe Weather on mobile